Big Bear Station Historical Data
Daily Summary for March 8, 2017 Units:  English    Metric   Both
« Previous Day
Next Day »
Daily Weekly Monthly Yearly Custom
  High: Low: Average:
Temperature: 61.7 °F 28.6 °F 41.6 °F
Dew Point: 38.2 °F 25.6 °F 29.9 °F
Humidity: 95 % 30 % 68 %
Wind Speed: 5.3 mph 0.0 mph 1 mph
Wind Gust: -999.0 mph - -
Wind:- - West
Pressure: 30.29 in 30.24 in -
Precipitation: 0.00 in    
Historical Graphs
 
 
Tabular Data for March 8, 2017
Time Temperature Dew Point Pressure Wind Wind Speed Wind Gust Humidity Rainfall Rate (Hourly)
00:08 30.9 °F 25.8 °F 30.28 in Calm   -999.0 mph 81 % 0 in
00:24 31.5 °F 26.6 °F 30.28 in South 1.7 mph -999.0 mph 82 % 0 in
00:39 30.7 °F 25.6 °F 30.28 in Calm   -999.0 mph 81 % 0 in
00:54 30.9 °F 26.1 °F 30.28 in North 1.1 mph -999.0 mph 82 % 0 in
01:09 30.6 °F 26.1 °F 30.28 in Calm   -999.0 mph 83 % 0 in
01:24 30.6 °F 26.3 °F 30.27 in Calm   -999.0 mph 84 % 0 in
01:40 30.2 °F 25.9 °F 30.27 in Calm   -999.0 mph 84 % 0 in
01:55 30.0 °F 25.8 °F 30.27 in Calm   -999.0 mph 84 % 0 in
02:10 29.7 °F 26.0 °F 30.27 in Calm   -999.0 mph 86 % 0 in
02:25 29.8 °F 26.4 °F 30.26 in SSE 2.2 mph -999.0 mph 87 % 0 in
02:41 30.2 °F 26.8 °F 30.26 in Calm   -999.0 mph 87 % 0 in
02:56 29.5 °F 26.4 °F 30.26 in Calm   -999.0 mph 88 % 0 in
03:11 29.7 °F 26.9 °F 30.26 in Calm   -999.0 mph 89 % 0 in
03:26 29.7 °F 27.4 °F 30.26 in SSE 1.7 mph -999.0 mph 91 % 0 in
03:41 29.5 °F 26.7 °F 30.26 in Calm   -999.0 mph 89 % 0 in
03:57 29.3 °F 26.7 °F 30.26 in Calm   -999.0 mph 90 % 0 in
04:12 29.3 °F 27.0 °F 30.26 in Calm   -999.0 mph 91 % 0 in
04:27 28.9 °F 26.3 °F 30.26 in Calm   -999.0 mph 90 % 0 in
04:42 29.1 °F 26.8 °F 30.26 in South 1.7 mph -999.0 mph 91 % 0 in
04:57 28.9 °F 26.9 °F 30.26 in Calm   -999.0 mph 92 % 0 in
05:13 28.8 °F 27.0 °F 30.26 in Calm   -999.0 mph 93 % 0 in
05:28 28.8 °F 27.0 °F 30.26 in Calm   -999.0 mph 93 % 0 in
05:43 28.9 °F 27.1 °F 30.26 in Calm   -999.0 mph 93 % 0 in
05:58 28.8 °F 27.0 °F 30.26 in Calm   -999.0 mph 93 % 0 in
06:13 28.6 °F 27.4 °F 30.26 in Calm   -999.0 mph 95 % 0 in
06:29 29.1 °F 27.8 °F 30.26 in Calm   -999.0 mph 95 % 0 in
06:44 29.3 °F 28.0 °F 30.27 in Calm   -999.0 mph 95 % 0 in
06:59 29.8 °F 28.5 °F 30.27 in Calm   -999.0 mph 95 % 0 in
07:14 29.8 °F 28.5 °F 30.27 in Calm   -999.0 mph 95 % 0 in
07:30 31.3 °F 29.8 °F 30.28 in Calm   -999.0 mph 94 % 0 in
07:45 32.4 °F 30.9 °F 30.28 in Calm   -999.0 mph 94 % 0 in
08:00 33.3 °F 31.5 °F 30.28 in Calm   -999.0 mph 93 % 0 in
08:15 34.2 °F 32.7 °F 30.28 in Calm   -999.0 mph 94 % 0 in
08:30 35.2 °F 33.1 °F 30.28 in Calm   -999.0 mph 92 % 0 in
08:46 37.0 °F 33.8 °F 30.29 in Calm   -999.0 mph 88 % 0 in
09:01 39.0 °F 34.9 °F 30.28 in Calm   -999.0 mph 85 % 0 in
09:16 41.4 °F 36.3 °F 30.28 in Calm   -999.0 mph 82 % 0 in
09:31 45.9 °F 37.0 °F 30.28 in Calm   -999.0 mph 71 % 0 in
09:46 48.9 °F 35.6 °F 30.28 in Calm   -999.0 mph 60 % 0 in
10:02 54.9 °F 32.8 °F 30.28 in NW 2.7 mph -999.0 mph 43 % 0 in
10:17 57.0 °F 34.1 °F 30.28 in NW 2.2 mph -999.0 mph 42 % 0 in
10:32 58.6 °F 32.4 °F 30.28 in NW 1.7 mph -999.0 mph 37 % 0 in
10:47 58.6 °F 33.1 °F 30.28 in NNW 2.2 mph -999.0 mph 38 % 0 in
11:02 59.5 °F 33.9 °F 30.28 in NNW 2.2 mph -999.0 mph 38 % 0 in
11:18 59.2 °F 34.2 °F 30.28 in NNW 2.7 mph -999.0 mph 39 % 0 in
11:33 60.1 °F 32.3 °F 30.28 in NNW 3.2 mph -999.0 mph 35 % 0 in
11:48 59.0 °F 38.2 °F 30.27 in WNW 3.2 mph -999.0 mph 46 % 0 in
12:03 59.7 °F 37.2 °F 30.27 in NNE 1.7 mph -999.0 mph 43 % 0 in
12:19 59.5 °F 37.0 °F 30.27 in WNW 2.7 mph -999.0 mph 43 % 0 in
12:34 59.7 °F 34.7 °F 30.26 in NW 3.7 mph -999.0 mph 39 % 0 in
12:50 60.4 °F 34.0 °F 30.26 in North 2.2 mph -999.0 mph 37 % 0 in
13:05 60.6 °F 32.8 °F 30.26 in WNW 2.2 mph -999.0 mph 35 % 0 in
13:20 61.7 °F 33.8 °F 30.25 in NW 3.2 mph -999.0 mph 35 % 0 in
13:35 59.5 °F 29.6 °F 30.24 in WNW 4.7 mph -999.0 mph 32 % 0 in
13:50 59.2 °F 27.8 °F 30.24 in WNW 2.2 mph -999.0 mph 30 % 0 in
14:06 58.6 °F 31.7 °F 30.24 in NW 2.7 mph -999.0 mph 36 % 0 in
14:21 57.9 °F 33.7 °F 30.24 in NNW 2.7 mph -999.0 mph 40 % 0 in
14:37 59.2 °F 32.9 °F 30.24 in NNW 5.3 mph -999.0 mph 37 % 0 in
14:52 57.4 °F 34.5 °F 30.24 in WNW 2.7 mph -999.0 mph 42 % 0 in
15:07 56.5 °F 33.1 °F 30.24 in WNW 2.7 mph -999.0 mph 41 % 0 in
15:23 57.2 °F 34.3 °F 30.24 in NNW 3.7 mph -999.0 mph 42 % 0 in
15:38 57.6 °F 32.2 °F 30.24 in NW 2.7 mph -999.0 mph 38 % 0 in
15:53 56.5 °F 31.8 °F 30.24 in NW 3.2 mph -999.0 mph 39 % 0 in
16:08 55.2 °F 32.5 °F 30.24 in NW 2.2 mph -999.0 mph 42 % 0 in
16:23 55.0 °F 34.0 °F 30.24 in NW 1.7 mph -999.0 mph 45 % 0 in
16:39 53.2 °F 34.0 °F 30.24 in NW 2.2 mph -999.0 mph 48 % 0 in
16:54 51.4 °F 31.8 °F 30.24 in NW 2.2 mph -999.0 mph 47 % 0 in
17:09 50.7 °F 28.4 °F 30.24 in NW 1.7 mph -999.0 mph 42 % 0 in
17:24 49.8 °F 27.6 °F 30.24 in Calm   -999.0 mph 42 % 0 in
17:39 48.9 °F 31.6 °F 30.25 in SSW 2.2 mph -999.0 mph 51 % 0 in
17:55 47.3 °F 31.0 °F 30.24 in South 2.2 mph -999.0 mph 53 % 0 in
18:10 45.5 °F 29.4 °F 30.25 in South 2.2 mph -999.0 mph 53 % 0 in
18:25 44.1 °F 27.6 °F 30.25 in Calm   -999.0 mph 52 % 0 in
18:40 42.6 °F 27.6 °F 30.25 in Calm   -999.0 mph 55 % 0 in
18:55 41.4 °F 27.3 °F 30.26 in South 1.7 mph -999.0 mph 57 % 0 in
19:11 40.5 °F 27.3 °F 30.26 in Calm   -999.0 mph 59 % 0 in
19:26 39.6 °F 28.0 °F 30.26 in Calm   -999.0 mph 63 % 0 in
19:41 39.0 °F 29.3 °F 30.26 in Calm   -999.0 mph 68 % 0 in
19:56 38.3 °F 29.0 °F 30.27 in Calm   -999.0 mph 69 % 0 in
20:11 37.8 °F 28.2 °F 30.27 in Calm   -999.0 mph 68 % 0 in
20:27 37.2 °F 29.0 °F 30.27 in South 1.7 mph -999.0 mph 72 % 0 in
20:42 36.3 °F 28.5 °F 30.27 in Calm   -999.0 mph 73 % 0 in
20:57 36.3 °F 27.8 °F 30.27 in Calm   -999.0 mph 71 % 0 in
21:13 36.1 °F 28.6 °F 30.27 in Calm   -999.0 mph 74 % 0 in
21:28 35.2 °F 28.4 °F 30.27 in Calm   -999.0 mph 76 % 0 in
21:43 34.9 °F 28.7 °F 30.28 in Calm   -999.0 mph 78 % 0 in
21:59 34.3 °F 27.8 °F 30.28 in Calm   -999.0 mph 77 % 0 in
22:14 34.2 °F 28.1 °F 30.28 in Calm   -999.0 mph 78 % 0 in
22:29 33.6 °F 26.8 °F 30.28 in Calm   -999.0 mph 76 % 0 in
22:44 33.3 °F 26.9 °F 30.29 in Calm   -999.0 mph 77 % 0 in
22:59 33.3 °F 27.2 °F 30.29 in Calm   -999.0 mph 78 % 0 in
23:15 32.9 °F 28.0 °F 30.29 in Calm   -999.0 mph 82 % 0 in
23:30 32.7 °F 27.5 °F 30.28 in Calm   -999.0 mph 81 % 0 in
23:46 32.2 °F 27.3 °F 30.28 in Calm   -999.0 mph 82 % 0 in
Big Bear CA Weather
Compliments of Weather Underground - 1.5 mb